Terminal Aerodrome Forecast
Issued by NWS Upton, NY

Home | Current Version | Previous Version | Text Only | Print | Product List | Glossary On
Versions: 1 2 3 4 5 6 7 8 9 10 11 12 13 14 15 16 17 18 19 20 21 22 23 24 25 26 27 28 29 30 31 32 33 34
000
FTUS41 KOKX 252040 AAA
TAFLGA
TAF AMD
KLGA 252040Z 2521/2624 04015KT 4SM BR OVC008
     FM252200 05009KT 2SM BR OVC007
     FM260000 VRB04KT 1SM BR OVC090
     FM260600 31005KT 3SM BR BKN150
     FM260900 31005KT P6SM BKN150
     FM261500 30009KT P6SM FEW250
     FM261900 29010G19KT P6SM FEW250=

USA.gov is the U.S. government's official web portal to all federal, state and local government web resources and services.